weather station
Area: 7197 km2
The highest point: Čupec (819 m.s.l.)
Total stations: 40
Stations online: 37
Stations offline: 3
Current weather
6°C

Meteorological map - weather stations in Jihomoravský

. The meteorological maps show weather information from WARIO weather stations

Weather stations Jihomoravský

 UpdatesNameStatusTemperatureHumidityWind speedWind direction
4.4.2020 19:57Archlebov7.7 °C50.4 %1.0 m/s N
4.4.2020 19:57Boskovice6.7 °C55.6 %1.5 m/s S
4.4.2020 19:57Brno - Líšeň8.6 °C40.9 %2.0 m/s N
4.4.2020 19:57Brno - Vinohrady9.1 °C48.2 %0.7 m/s E
4.4.2020 19:57Brno - Komín8.0 °C48.6 %0.0 m/s NE
4.4.2020 19:58Brno - Střed9.7 °C44.3 %2.0 m/s W
4.4.2020 19:57Brno - Kníničky6.0 °C58.5 %0.7 m/s E
4.4.2020 19:57Býkovice5.9 °C51.5 %0.0 m/s S
4.4.2020 19:57Diváky6.3 °C46.8 %0.0 m/s SE
4.4.2020 19:57Dobšice10.6 °C50.3 %1.8 m/s S
4.4.2020 19:57Drnholec9.5 °C50.4 %0.0 m/s N
4.4.2020 19:57Lelekovice8.0 °C52.7 %1.5 m/s NW
4.4.2020 19:57Holubice7.2 °C52.3 %1.2 m/s N
4.4.2020 19:56Moravany4.2 °C58.6 %0.9 m/s S
11.3.2020 08:49Brno - Královo Pole9.7 °C77.2 %2.7 m/s S
4.4.2020 19:57Lomnice6.3 °C60.4 %0.5 m/s SW
4.4.2020 19:57Višňové6.2 °C67.2 %0.0 m/s W
4.4.2020 19:57Lelekovice7.9 °C52.5 %1.3 m/s NW
4.4.2020 19:58Dolní Dubňany3.9 °C74.6 %1.4 m/s W
4.4.2020 19:58Bzenec10.2 °C40.5 %1.2 m/s W
4.4.2020 19:57Brno - Jih9.5 °C45.5 %1.8 m/s N
4.4.2020 19:58Svatobořice7.7 °C49.7 %0.7 m/s SW
4.4.2020 19:57Moravské Bránice8.2 °C55.1 %1.1 m/s SE
4.4.2020 19:57Předklášteří4.6 °C65.9 %2.4 m/s E
4.4.2020 19:58Brno - Přízřenice9.3 °C39.3 %2.2 m/s S
28.3.2020 10:41Rousínov °C %0.0 m/s W
21.3.2020 16:29Senorady °C %2.3 m/s NW
4.4.2020 19:58Skalice u Znojma6.2 °C67.7 %0.0 m/s E
4.4.2020 19:58Šlapanice8.1 °C48.4 %0.8 m/s NE
4.4.2020 19:57Brno - Trnitá0.0 °C %0.0 m/s W
4.4.2020 19:58Kuřim °C %0.7 m/s E
4.4.2020 19:57Strážnice GUMEX9.3 °C44.9 %0.0 m/s SW
4.4.2020 19:57Němčičky9.3 °C36.5 %0.0 m/s N
4.4.2020 19:58Velatice-40.0 °C %1.5 m/s SW
4.4.2020 19:57Veselí nad Moravou9.4 °C43.8 %3.2 m/s NE
4.4.2020 19:57Veselí nad Moravou9.0 °C44.5 %0.0 m/s NE
4.4.2020 19:57Vlasatice7.5 °C53.5 %0.0 m/s N
4.4.2020 19:57Vrbovec8.3 °C56.3 %0.0 m/s NE
4.4.2020 19:58Rájec-Jestřebí3.7 °C72.4 %1.8 m/s E
4.4.2020 19:57Brno - Královo Pole °C %0.9 m/s W
Email notifications
Enter your email address to subscribe to notifications about news at warioweather.com. Your email address will not be used for any purpose other than sending these emails and will not be provided to any third party. The subscription can be ended at any time.
All data are only indicative. The portal administrator has no responsibility for potentially incorrect data and related consequences. Publishing or further sharing of content from www.warioweather.com is only allowed with written consent from WANET s.r.o.